sensor_id;sensor_type;location;lat;lon;timestamp;P1;durP1;ratioP1;P2;durP2;ratioP2
67715;SDS011;54508;43.238;25.306;2023-03-20T00:01:11;17.60;;;12.00;;
67715;SDS011;54508;43.238;25.306;2023-03-20T00:03:41;18.50;;;11.70;;
67715;SDS011;54508;43.238;25.306;2023-03-20T00:06:12;18.55;;;12.10;;
67715;SDS011;54508;43.238;25.306;2023-03-20T00:08:40;14.52;;;10.93;;
67715;SDS011;54508;43.238;25.306;2023-03-20T00:11:08;14.90;;;10.90;;
67715;SDS011;54508;43.238;25.306;2023-03-20T00:14:10;16.40;;;10.95;;
67715;SDS011;54508;43.238;25.306;2023-03-20T00:16:44;16.30;;;10.98;;
67715;SDS011;54508;43.238;25.306;2023-03-20T00:21:43;18.03;;;11.10;;
67715;SDS011;54508;43.238;25.306;2023-03-20T00:24:11;15.80;;;10.70;;
67715;SDS011;54508;43.238;25.306;2023-03-20T00:26:37;16.85;;;10.98;;
67715;SDS011;54508;43.238;25.306;2023-03-20T00:29:03;20.85;;;11.63;;
67715;SDS011;54508;43.238;25.306;2023-03-20T00:34:00;15.07;;;10.63;;
67715;SDS011;54508;43.238;25.306;2023-03-20T00:36:28;15.48;;;10.82;;
67715;SDS011;54508;43.238;25.306;2023-03-20T00:38:54;12.40;;;9.53;;
67715;SDS011;54508;43.238;25.306;2023-03-20T00:46:45;14.30;;;9.90;;
67715;SDS011;54508;43.238;25.306;2023-03-20T00:49:12;14.43;;;10.30;;
67715;SDS011;54508;43.238;25.306;2023-03-20T00:51:38;12.53;;;9.50;;
67715;SDS011;54508;43.238;25.306;2023-03-20T00:54:14;16.50;;;9.57;;
67715;SDS011;54508;43.238;25.306;2023-03-20T00:56:41;14.55;;;9.57;;
67715;SDS011;54508;43.238;25.306;2023-03-20T00:59:21;13.90;;;9.93;;
67715;SDS011;54508;43.238;25.306;2023-03-20T01:01:49;12.80;;;9.60;;
67715;SDS011;54508;43.238;25.306;2023-03-20T01:04:15;15.70;;;9.53;;
67715;SDS011;54508;43.238;25.306;2023-03-20T01:06:43;14.07;;;9.55;;
67715;SDS011;54508;43.238;25.306;2023-03-20T01:09:09;15.30;;;10.15;;
67715;SDS011;54508;43.238;25.306;2023-03-20T01:11:35;16.05;;;9.85;;
67715;SDS011;54508;43.238;25.306;2023-03-20T01:14:01;12.52;;;8.85;;
67715;SDS011;54508;43.238;25.306;2023-03-20T01:16:27;13.60;;;9.13;;
67715;SDS011;54508;43.238;25.306;2023-03-20T01:18:53;13.10;;;8.88;;
67715;SDS011;54508;43.238;25.306;2023-03-20T01:21:18;15.30;;;8.82;;
67715;SDS011;54508;43.238;25.306;2023-03-20T01:23:44;14.05;;;9.07;;
67715;SDS011;54508;43.238;25.306;2023-03-20T01:26:55;11.47;;;8.07;;
67715;SDS011;54508;43.238;25.306;2023-03-20T01:28:58;14.10;;;8.45;;
67715;SDS011;54508;43.238;25.306;2023-03-20T01:31:24;14.10;;;8.68;;
67715;SDS011;54508;43.238;25.306;2023-03-20T01:33:50;11.50;;;8.40;;
67715;SDS011;54508;43.238;25.306;2023-03-20T01:36:17;12.98;;;8.45;;
67715;SDS011;54508;43.238;25.306;2023-03-20T01:38:53;14.20;;;9.05;;
67715;SDS011;54508;43.238;25.306;2023-03-20T01:41:20;15.52;;;9.07;;
67715;SDS011;54508;43.238;25.306;2023-03-20T01:43:47;11.65;;;7.97;;
67715;SDS011;54508;43.238;25.306;2023-03-20T01:46:22;13.57;;;9.52;;
67715;SDS011;54508;43.238;25.306;2023-03-20T01:56:23;11.38;;;7.75;;
67715;SDS011;54508;43.238;25.306;2023-03-20T01:58:53;12.35;;;8.15;;
67715;SDS011;54508;43.238;25.306;2023-03-20T02:01:22;10.82;;;7.80;;
67715;SDS011;54508;43.238;25.306;2023-03-20T02:03:49;12.83;;;7.70;;
67715;SDS011;54508;43.238;25.306;2023-03-20T02:06:18;13.07;;;8.40;;
67715;SDS011;54508;43.238;25.306;2023-03-20T02:08:46;15.18;;;9.35;;
67715;SDS011;54508;43.238;25.306;2023-03-20T02:11:13;12.88;;;8.75;;
67715;SDS011;54508;43.238;25.306;2023-03-20T02:13:40;14.85;;;8.93;;
67715;SDS011;54508;43.238;25.306;2023-03-20T02:16:09;13.27;;;8.37;;
67715;SDS011;54508;43.238;25.306;2023-03-20T02:18:37;14.52;;;8.32;;
67715;SDS011;54508;43.238;25.306;2023-03-20T02:21:25;12.05;;;8.50;;
67715;SDS011;54508;43.238;25.306;2023-03-20T02:32:39;11.00;;;7.40;;
67715;SDS011;54508;43.238;25.306;2023-03-20T02:43:42;10.53;;;7.80;;
67715;SDS011;54508;43.238;25.306;2023-03-20T02:49:25;11.55;;;7.63;;
67715;SDS011;54508;43.238;25.306;2023-03-20T03:03:56;13.23;;;8.30;;
67715;SDS011;54508;43.238;25.306;2023-03-20T03:06:29;12.45;;;8.35;;
67715;SDS011;54508;43.238;25.306;2023-03-20T03:09:06;12.00;;;8.10;;
67715;SDS011;54508;43.238;25.306;2023-03-20T03:11:37;11.17;;;7.80;;
67715;SDS011;54508;43.238;25.306;2023-03-20T03:14:06;10.57;;;7.10;;
67715;SDS011;54508;43.238;25.306;2023-03-20T03:16:40;10.40;;;7.35;;
67715;SDS011;54508;43.238;25.306;2023-03-20T03:19:18;12.80;;;8.55;;
67715;SDS011;54508;43.238;25.306;2023-03-20T03:21:47;11.93;;;7.38;;
67715;SDS011;54508;43.238;25.306;2023-03-20T03:24:32;10.97;;;8.03;;
67715;SDS011;54508;43.238;25.306;2023-03-20T03:27:03;11.63;;;8.18;;
67715;SDS011;54508;43.238;25.306;2023-03-20T03:29:35;11.18;;;7.80;;
67715;SDS011;54508;43.238;25.306;2023-03-20T03:32:01;11.05;;;7.80;;
67715;SDS011;54508;43.238;25.306;2023-03-20T03:34:31;10.17;;;7.87;;
67715;SDS011;54508;43.238;25.306;2023-03-20T03:42:08;9.88;;;7.22;;
67715;SDS011;54508;43.238;25.306;2023-03-20T03:47:33;11.00;;;7.50;;
67715;SDS011;54508;43.238;25.306;2023-03-20T03:50:05;11.43;;;7.18;;
67715;SDS011;54508;43.238;25.306;2023-03-20T03:52:35;10.35;;;7.65;;
67715;SDS011;54508;43.238;25.306;2023-03-20T03:55:05;8.95;;;6.32;;
67715;SDS011;54508;43.238;25.306;2023-03-20T03:57:36;8.30;;;6.82;;
67715;SDS011;54508;43.238;25.306;2023-03-20T04:00:08;11.77;;;7.22;;
67715;SDS011;54508;43.238;25.306;2023-03-20T04:02:36;10.57;;;7.32;;
67715;SDS011;54508;43.238;25.306;2023-03-20T04:05:02;9.38;;;6.80;;
67715;SDS011;54508;43.238;25.306;2023-03-20T04:07:30;9.07;;;6.87;;
67715;SDS011;54508;43.238;25.306;2023-03-20T04:09:55;10.38;;;7.50;;
67715;SDS011;54508;43.238;25.306;2023-03-20T04:12:34;9.77;;;7.73;;
67715;SDS011;54508;43.238;25.306;2023-03-20T04:15:02;16.20;;;7.13;;
67715;SDS011;54508;43.238;25.306;2023-03-20T04:17:28;8.85;;;6.65;;
67715;SDS011;54508;43.238;25.306;2023-03-20T04:19:54;9.00;;;6.80;;
67715;SDS011;54508;43.238;25.306;2023-03-20T04:22:20;11.38;;;7.68;;
67715;SDS011;54508;43.238;25.306;2023-03-20T04:24:45;10.03;;;7.10;;
67715;SDS011;54508;43.238;25.306;2023-03-20T04:27:11;12.27;;;7.40;;
67715;SDS011;54508;43.238;25.306;2023-03-20T04:29:36;11.77;;;7.57;;
67715;SDS011;54508;43.238;25.306;2023-03-20T04:32:02;8.97;;;7.20;;
67715;SDS011;54508;43.238;25.306;2023-03-20T04:34:27;9.53;;;6.77;;
67715;SDS011;54508;43.238;25.306;2023-03-20T04:36:53;11.52;;;8.15;;
67715;SDS011;54508;43.238;25.306;2023-03-20T04:39:19;11.60;;;7.33;;
67715;SDS011;54508;43.238;25.306;2023-03-20T04:41:45;13.07;;;7.28;;
67715;SDS011;54508;43.238;25.306;2023-03-20T04:44:11;10.60;;;7.43;;
67715;SDS011;54508;43.238;25.306;2023-03-20T04:46:36;10.90;;;7.20;;
67715;SDS011;54508;43.238;25.306;2023-03-20T04:49:02;12.30;;;7.00;;
67715;SDS011;54508;43.238;25.306;2023-03-20T04:51:27;9.50;;;6.70;;
67715;SDS011;54508;43.238;25.306;2023-03-20T04:53:53;11.50;;;7.32;;
67715;SDS011;54508;43.238;25.306;2023-03-20T04:56:18;10.97;;;7.30;;
67715;SDS011;54508;43.238;25.306;2023-03-20T04:58:44;11.80;;;7.53;;
67715;SDS011;54508;43.238;25.306;2023-03-20T05:01:09;10.63;;;7.20;;
67715;SDS011;54508;43.238;25.306;2023-03-20T05:03:34;10.35;;;7.75;;
67715;SDS011;54508;43.238;25.306;2023-03-20T05:06:00;8.77;;;7.03;;
67715;SDS011;54508;43.238;25.306;2023-03-20T05:08:25;9.73;;;6.93;;
67715;SDS011;54508;43.238;25.306;2023-03-20T05:10:51;9.80;;;7.03;;
67715;SDS011;54508;43.238;25.306;2023-03-20T05:13:17;10.77;;;6.85;;
67715;SDS011;54508;43.238;25.306;2023-03-20T05:15:42;9.73;;;7.73;;
67715;SDS011;54508;43.238;25.306;2023-03-20T05:18:08;10.88;;;7.50;;
67715;SDS011;54508;43.238;25.306;2023-03-20T05:20:34;11.20;;;7.30;;
67715;SDS011;54508;43.238;25.306;2023-03-20T05:23:00;12.30;;;8.00;;
67715;SDS011;54508;43.238;25.306;2023-03-20T05:25:26;9.45;;;7.15;;
67715;SDS011;54508;43.238;25.306;2023-03-20T05:27:52;11.83;;;7.37;;
67715;SDS011;54508;43.238;25.306;2023-03-20T05:30:17;9.43;;;7.63;;
67715;SDS011;54508;43.238;25.306;2023-03-20T05:32:43;9.82;;;6.82;;
67715;SDS011;54508;43.238;25.306;2023-03-20T05:35:10;13.95;;;6.85;;
67715;SDS011;54508;43.238;25.306;2023-03-20T05:37:36;13.02;;;7.32;;
67715;SDS011;54508;43.238;25.306;2023-03-20T05:40:02;13.30;;;8.57;;
67715;SDS011;54508;43.238;25.306;2023-03-20T05:42:30;11.75;;;7.72;;
67715;SDS011;54508;43.238;25.306;2023-03-20T05:44:56;18.90;;;7.80;;
67715;SDS011;54508;43.238;25.306;2023-03-20T05:47:21;20.10;;;6.77;;
67715;SDS011;54508;43.238;25.306;2023-03-20T05:49:47;22.65;;;8.07;;
67715;SDS011;54508;43.238;25.306;2023-03-20T05:52:12;19.83;;;8.30;;
67715;SDS011;54508;43.238;25.306;2023-03-20T05:54:38;20.10;;;7.40;;
67715;SDS011;54508;43.238;25.306;2023-03-20T05:57:03;17.37;;;8.07;;
67715;SDS011;54508;43.238;25.306;2023-03-20T05:59:29;15.77;;;7.00;;
67715;SDS011;54508;43.238;25.306;2023-03-20T06:01:54;15.27;;;8.90;;
67715;SDS011;54508;43.238;25.306;2023-03-20T06:04:19;20.30;;;11.07;;
67715;SDS011;54508;43.238;25.306;2023-03-20T06:06:45;17.97;;;10.77;;
67715;SDS011;54508;43.238;25.306;2023-03-20T06:09:10;20.60;;;11.33;;
67715;SDS011;54508;43.238;25.306;2023-03-20T06:11:36;22.33;;;11.18;;
67715;SDS011;54508;43.238;25.306;2023-03-20T06:14:04;31.92;;;12.18;;
67715;SDS011;54508;43.238;25.306;2023-03-20T06:16:35;30.67;;;11.85;;
67715;SDS011;54508;43.238;25.306;2023-03-20T06:19:01;29.50;;;11.93;;
67715;SDS011;54508;43.238;25.306;2023-03-20T06:21:48;23.77;;;13.90;;
67715;SDS011;54508;43.238;25.306;2023-03-20T06:24:30;28.35;;;16.73;;
67715;SDS011;54508;43.238;25.306;2023-03-20T06:26:57;19.25;;;12.80;;
67715;SDS011;54508;43.238;25.306;2023-03-20T06:29:23;28.80;;;12.40;;
67715;SDS011;54508;43.238;25.306;2023-03-20T06:31:50;26.13;;;11.77;;
67715;SDS011;54508;43.238;25.306;2023-03-20T06:34:16;24.42;;;13.65;;
67715;SDS011;54508;43.238;25.306;2023-03-20T06:36:41;19.25;;;13.63;;
67715;SDS011;54508;43.238;25.306;2023-03-20T06:39:07;23.17;;;11.88;;
67715;SDS011;54508;43.238;25.306;2023-03-20T06:41:33;19.97;;;13.70;;
67715;SDS011;54508;43.238;25.306;2023-03-20T06:43:58;20.33;;;13.40;;
67715;SDS011;54508;43.238;25.306;2023-03-20T06:46:24;20.43;;;11.97;;
67715;SDS011;54508;43.238;25.306;2023-03-20T06:48:49;15.23;;;10.43;;
67715;SDS011;54508;43.238;25.306;2023-03-20T06:51:16;14.55;;;9.07;;
67715;SDS011;54508;43.238;25.306;2023-03-20T06:53:41;15.32;;;8.80;;
67715;SDS011;54508;43.238;25.306;2023-03-20T06:56:08;15.25;;;9.90;;
67715;SDS011;54508;43.238;25.306;2023-03-20T06:58:35;17.55;;;10.05;;
67715;SDS011;54508;43.238;25.306;2023-03-20T07:01:01;14.05;;;10.38;;
67715;SDS011;54508;43.238;25.306;2023-03-20T07:03:27;14.40;;;10.43;;
67715;SDS011;54508;43.238;25.306;2023-03-20T07:05:53;15.45;;;10.18;;
67715;SDS011;54508;43.238;25.306;2023-03-20T07:08:19;14.00;;;9.45;;
67715;SDS011;54508;43.238;25.306;2023-03-20T07:10:44;12.37;;;9.60;;
67715;SDS011;54508;43.238;25.306;2023-03-20T07:13:10;15.07;;;10.27;;
67715;SDS011;54508;43.238;25.306;2023-03-20T07:15:36;15.55;;;8.93;;
67715;SDS011;54508;43.238;25.306;2023-03-20T07:18:01;13.90;;;9.40;;
67715;SDS011;54508;43.238;25.306;2023-03-20T07:20:27;16.88;;;8.45;;
67715;SDS011;54508;43.238;25.306;2023-03-20T07:22:52;17.87;;;8.60;;
67715;SDS011;54508;43.238;25.306;2023-03-20T07:25:19;12.63;;;8.20;;
67715;SDS011;54508;43.238;25.306;2023-03-20T07:27:45;15.80;;;7.45;;
67715;SDS011;54508;43.238;25.306;2023-03-20T07:30:15;13.80;;;8.10;;
67715;SDS011;54508;43.238;25.306;2023-03-20T07:32:41;20.10;;;8.02;;
67715;SDS011;54508;43.238;25.306;2023-03-20T07:35:07;13.40;;;8.15;;
67715;SDS011;54508;43.238;25.306;2023-03-20T07:37:33;14.75;;;7.20;;
67715;SDS011;54508;43.238;25.306;2023-03-20T07:39:58;13.60;;;6.27;;
67715;SDS011;54508;43.238;25.306;2023-03-20T07:42:24;10.52;;;6.85;;
67715;SDS011;54508;43.238;25.306;2023-03-20T07:44:50;9.53;;;6.77;;
67715;SDS011;54508;43.238;25.306;2023-03-20T07:47:15;13.25;;;6.82;;
67715;SDS011;54508;43.238;25.306;2023-03-20T07:49:41;22.83;;;6.63;;
67715;SDS011;54508;43.238;25.306;2023-03-20T07:52:06;25.07;;;6.57;;
67715;SDS011;54508;43.238;25.306;2023-03-20T07:54:32;17.27;;;6.18;;
67715;SDS011;54508;43.238;25.306;2023-03-20T07:56:58;13.90;;;6.07;;
67715;SDS011;54508;43.238;25.306;2023-03-20T07:59:24;13.27;;;6.50;;
67715;SDS011;54508;43.238;25.306;2023-03-20T08:01:50;25.13;;;7.03;;
67715;SDS011;54508;43.238;25.306;2023-03-20T08:04:16;18.77;;;6.00;;
67715;SDS011;54508;43.238;25.306;2023-03-20T08:06:43;13.48;;;6.25;;
67715;SDS011;54508;43.238;25.306;2023-03-20T08:09:09;14.77;;;6.20;;
67715;SDS011;54508;43.238;25.306;2023-03-20T08:11:35;19.33;;;6.23;;
67715;SDS011;54508;43.238;25.306;2023-03-20T08:14:00;19.42;;;6.07;;
67715;SDS011;54508;43.238;25.306;2023-03-20T08:16:26;17.70;;;5.50;;
67715;SDS011;54508;43.238;25.306;2023-03-20T08:18:51;12.23;;;5.20;;
67715;SDS011;54508;43.238;25.306;2023-03-20T08:21:20;10.02;;;5.30;;
67715;SDS011;54508;43.238;25.306;2023-03-20T08:23:46;9.82;;;4.60;;
67715;SDS011;54508;43.238;25.306;2023-03-20T08:26:11;7.80;;;5.67;;
67715;SDS011;54508;43.238;25.306;2023-03-20T08:28:37;12.55;;;5.20;;
67715;SDS011;54508;43.238;25.306;2023-03-20T08:31:06;11.63;;;5.53;;
67715;SDS011;54508;43.238;25.306;2023-03-20T08:33:32;16.90;;;6.00;;
67715;SDS011;54508;43.238;25.306;2023-03-20T08:35:57;19.50;;;6.47;;
67715;SDS011;54508;43.238;25.306;2023-03-20T08:38:24;13.25;;;5.85;;
67715;SDS011;54508;43.238;25.306;2023-03-20T08:40:50;11.27;;;5.60;;
67715;SDS011;54508;43.238;25.306;2023-03-20T08:43:16;19.07;;;5.90;;
67715;SDS011;54508;43.238;25.306;2023-03-20T08:45:42;16.83;;;6.10;;
67715;SDS011;54508;43.238;25.306;2023-03-20T08:48:08;17.55;;;6.00;;
67715;SDS011;54508;43.238;25.306;2023-03-20T08:50:33;15.93;;;5.85;;
67715;SDS011;54508;43.238;25.306;2023-03-20T08:52:59;14.50;;;6.40;;
67715;SDS011;54508;43.238;25.306;2023-03-20T08:55:25;17.40;;;6.20;;
67715;SDS011;54508;43.238;25.306;2023-03-20T08:57:50;13.20;;;5.85;;
67715;SDS011;54508;43.238;25.306;2023-03-20T09:00:18;13.50;;;6.03;;
67715;SDS011;54508;43.238;25.306;2023-03-20T09:02:44;14.50;;;5.72;;
67715;SDS011;54508;43.238;25.306;2023-03-20T09:05:10;15.00;;;5.50;;
67715;SDS011;54508;43.238;25.306;2023-03-20T09:07:35;15.23;;;5.80;;
67715;SDS011;54508;43.238;25.306;2023-03-20T09:10:01;11.65;;;5.22;;
67715;SDS011;54508;43.238;25.306;2023-03-20T09:12:28;12.93;;;5.90;;
67715;SDS011;54508;43.238;25.306;2023-03-20T09:14:55;9.70;;;5.53;;
67715;SDS011;54508;43.238;25.306;2023-03-20T09:17:21;10.70;;;5.43;;
67715;SDS011;54508;43.238;25.306;2023-03-20T09:19:47;13.93;;;5.10;;
67715;SDS011;54508;43.238;25.306;2023-03-20T09:22:12;9.47;;;5.37;;
67715;SDS011;54508;43.238;25.306;2023-03-20T09:24:39;12.43;;;5.82;;
67715;SDS011;54508;43.238;25.306;2023-03-20T09:27:04;10.98;;;5.40;;
67715;SDS011;54508;43.238;25.306;2023-03-20T09:29:30;9.98;;;4.78;;
67715;SDS011;54508;43.238;25.306;2023-03-20T09:31:56;9.93;;;4.97;;
67715;SDS011;54508;43.238;25.306;2023-03-20T09:34:21;8.48;;;4.75;;
67715;SDS011;54508;43.238;25.306;2023-03-20T09:36:48;9.18;;;4.70;;
67715;SDS011;54508;43.238;25.306;2023-03-20T09:39:14;7.03;;;4.55;;
67715;SDS011;54508;43.238;25.306;2023-03-20T09:41:39;7.33;;;4.37;;
67715;SDS011;54508;43.238;25.306;2023-03-20T09:49:28;13.93;;;5.10;;
67715;SDS011;54508;43.238;25.306;2023-03-20T09:52:17;9.10;;;5.00;;
67715;SDS011;54508;43.238;25.306;2023-03-20T09:54:46;8.10;;;5.10;;
67715;SDS011;54508;43.238;25.306;2023-03-20T09:57:20;14.23;;;5.03;;
67715;SDS011;54508;43.238;25.306;2023-03-20T09:59:57;18.80;;;5.18;;
67715;SDS011;54508;43.238;25.306;2023-03-20T10:02:34;18.50;;;5.43;;
67715;SDS011;54508;43.238;25.306;2023-03-20T10:05:01;19.40;;;5.45;;
67715;SDS011;54508;43.238;25.306;2023-03-20T10:07:27;18.40;;;5.50;;
67715;SDS011;54508;43.238;25.306;2023-03-20T10:09:53;9.47;;;4.67;;
67715;SDS011;54508;43.238;25.306;2023-03-20T10:12:28;11.80;;;5.32;;
67715;SDS011;54508;43.238;25.306;2023-03-20T10:20:58;15.60;;;5.38;;
67715;SDS011;54508;43.238;25.306;2023-03-20T10:23:32;22.27;;;5.28;;
67715;SDS011;54508;43.238;25.306;2023-03-20T10:42:09;14.60;;;5.43;;
67715;SDS011;54508;43.238;25.306;2023-03-20T10:44:43;15.88;;;4.50;;
67715;SDS011;54508;43.238;25.306;2023-03-20T10:47:13;8.30;;;4.35;;
67715;SDS011;54508;43.238;25.306;2023-03-20T10:49:45;10.32;;;4.22;;
67715;SDS011;54508;43.238;25.306;2023-03-20T10:52:15;10.95;;;4.93;;
67715;SDS011;54508;43.238;25.306;2023-03-20T10:54:43;15.48;;;5.18;;
67715;SDS011;54508;43.238;25.306;2023-03-20T10:57:21;13.32;;;5.18;;
67715;SDS011;54508;43.238;25.306;2023-03-20T10:59:51;24.17;;;5.25;;
67715;SDS011;54508;43.238;25.306;2023-03-20T11:02:23;31.55;;;5.43;;
67715;SDS011;54508;43.238;25.306;2023-03-20T11:04:51;27.58;;;5.95;;
67715;SDS011;54508;43.238;25.306;2023-03-20T11:07:33;36.13;;;6.13;;
67715;SDS011;54508;43.238;25.306;2023-03-20T11:12:31;20.55;;;5.85;;
67715;SDS011;54508;43.238;25.306;2023-03-20T11:15:03;19.67;;;5.72;;
67715;SDS011;54508;43.238;25.306;2023-03-20T11:17:49;20.43;;;5.03;;
67715;SDS011;54508;43.238;25.306;2023-03-20T11:20:19;20.60;;;5.85;;
67715;SDS011;54508;43.238;25.306;2023-03-20T11:22:46;18.80;;;5.03;;
67715;SDS011;54508;43.238;25.306;2023-03-20T11:25:27;18.57;;;4.90;;
67715;SDS011;54508;43.238;25.306;2023-03-20T11:27:56;15.43;;;4.63;;
67715;SDS011;54508;43.238;25.306;2023-03-20T11:30:22;8.05;;;4.32;;
67715;SDS011;54508;43.238;25.306;2023-03-20T11:32:49;15.15;;;4.70;;
67715;SDS011;54508;43.238;25.306;2023-03-20T11:35:20;11.02;;;4.65;;
67715;SDS011;54508;43.238;25.306;2023-03-20T11:37:52;10.20;;;4.75;;
67715;SDS011;54508;43.238;25.306;2023-03-20T11:40:23;13.90;;;4.57;;
67715;SDS011;54508;43.238;25.306;2023-03-20T11:46:20;16.77;;;4.28;;
67715;SDS011;54508;43.238;25.306;2023-03-20T11:48:47;10.52;;;4.95;;
67715;SDS011;54508;43.238;25.306;2023-03-20T11:51:26;12.43;;;4.20;;
67715;SDS011;54508;43.238;25.306;2023-03-20T11:56:29;18.10;;;4.53;;
67715;SDS011;54508;43.238;25.306;2023-03-20T11:58:57;11.45;;;3.80;;
67715;SDS011;54508;43.238;25.306;2023-03-20T12:01:29;19.02;;;4.95;;
67715;SDS011;54508;43.238;25.306;2023-03-20T12:04:10;7.28;;;3.90;;
67715;SDS011;54508;43.238;25.306;2023-03-20T12:06:48;12.05;;;4.05;;
67715;SDS011;54508;43.238;25.306;2023-03-20T12:11:59;9.43;;;4.03;;
67715;SDS011;54508;43.238;25.306;2023-03-20T12:14:55;8.60;;;3.85;;
67715;SDS011;54508;43.238;25.306;2023-03-20T12:23:12;10.43;;;3.92;;
67715;SDS011;54508;43.238;25.306;2023-03-20T12:33:43;8.90;;;4.13;;
67715;SDS011;54508;43.238;25.306;2023-03-20T12:36:12;22.73;;;16.80;;
67715;SDS011;54508;43.238;25.306;2023-03-20T12:38:39;20.67;;;14.30;;
67715;SDS011;54508;43.238;25.306;2023-03-20T12:41:28;23.05;;;13.10;;
67715;SDS011;54508;43.238;25.306;2023-03-20T12:44:07;18.52;;;10.00;;
67715;SDS011;54508;43.238;25.306;2023-03-20T12:56:10;17.98;;;5.68;;
67715;SDS011;54508;43.238;25.306;2023-03-20T13:01:47;12.40;;;5.40;;
67715;SDS011;54508;43.238;25.306;2023-03-20T13:04:20;10.23;;;4.97;;
67715;SDS011;54508;43.238;25.306;2023-03-20T13:07:16;11.70;;;4.95;;
67715;SDS011;54508;43.238;25.306;2023-03-20T13:15:06;8.35;;;5.13;;
67715;SDS011;54508;43.238;25.306;2023-03-20T13:20:10;8.95;;;5.55;;
67715;SDS011;54508;43.238;25.306;2023-03-20T13:26:00;7.22;;;6.22;;
67715;SDS011;54508;43.238;25.306;2023-03-20T13:39:36;7.70;;;4.90;;
67715;SDS011;54508;43.238;25.306;2023-03-20T13:42:13;7.22;;;4.55;;
67715;SDS011;54508;43.238;25.306;2023-03-20T13:44:41;7.13;;;4.60;;
67715;SDS011;54508;43.238;25.306;2023-03-20T13:47:12;10.95;;;4.90;;
67715;SDS011;54508;43.238;25.306;2023-03-20T13:49:52;9.90;;;4.95;;
67715;SDS011;54508;43.238;25.306;2023-03-20T13:52:24;5.90;;;4.70;;
67715;SDS011;54508;43.238;25.306;2023-03-20T13:57:50;8.85;;;5.32;;
67715;SDS011;54508;43.238;25.306;2023-03-20T14:03:04;8.65;;;5.00;;
67715;SDS011;54508;43.238;25.306;2023-03-20T14:05:39;8.20;;;5.60;;
67715;SDS011;54508;43.238;25.306;2023-03-20T14:11:04;13.10;;;8.02;;
67715;SDS011;54508;43.238;25.306;2023-03-20T14:13:46;14.57;;;8.48;;
67715;SDS011;54508;43.238;25.306;2023-03-20T14:16:14;14.48;;;8.50;;
67715;SDS011;54508;43.238;25.306;2023-03-20T14:18:42;15.07;;;8.20;;
67715;SDS011;54508;43.238;25.306;2023-03-20T14:21:12;14.10;;;8.75;;
67715;SDS011;54508;43.238;25.306;2023-03-20T14:24:22;11.68;;;8.07;;
67715;SDS011;54508;43.238;25.306;2023-03-20T14:26:34;14.68;;;9.20;;
67715;SDS011;54508;43.238;25.306;2023-03-20T14:31:35;12.25;;;8.18;;
67715;SDS011;54508;43.238;25.306;2023-03-20T14:36:45;11.88;;;6.90;;
67715;SDS011;54508;43.238;25.306;2023-03-20T14:44:37;8.57;;;4.95;;
67715;SDS011;54508;43.238;25.306;2023-03-20T14:47:35;10.45;;;5.22;;
67715;SDS011;54508;43.238;25.306;2023-03-20T14:52:58;8.95;;;5.03;;
67715;SDS011;54508;43.238;25.306;2023-03-20T15:01:15;13.65;;;5.22;;
67715;SDS011;54508;43.238;25.306;2023-03-20T15:03:49;15.40;;;5.28;;
67715;SDS011;54508;43.238;25.306;2023-03-20T15:06:19;11.10;;;5.15;;
67715;SDS011;54508;43.238;25.306;2023-03-20T15:08:50;9.63;;;4.07;;
67715;SDS011;54508;43.238;25.306;2023-03-20T15:11:17;11.95;;;4.88;;
67715;SDS011;54508;43.238;25.306;2023-03-20T15:13:44;13.38;;;4.88;;
67715;SDS011;54508;43.238;25.306;2023-03-20T15:16:15;9.40;;;4.25;;
67715;SDS011;54508;43.238;25.306;2023-03-20T15:18:49;11.95;;;5.30;;
67715;SDS011;54508;43.238;25.306;2023-03-20T15:21:19;13.20;;;4.63;;
67715;SDS011;54508;43.238;25.306;2023-03-20T15:23:52;11.75;;;4.32;;
67715;SDS011;54508;43.238;25.306;2023-03-20T15:26:18;8.70;;;4.93;;
67715;SDS011;54508;43.238;25.306;2023-03-20T15:28:44;10.38;;;4.18;;
67715;SDS011;54508;43.238;25.306;2023-03-20T15:31:22;9.70;;;4.30;;
67715;SDS011;54508;43.238;25.306;2023-03-20T15:33:50;7.47;;;4.15;;
67715;SDS011;54508;43.238;25.306;2023-03-20T15:36:20;10.50;;;4.30;;
67715;SDS011;54508;43.238;25.306;2023-03-20T15:38:47;11.25;;;4.82;;
67715;SDS011;54508;43.238;25.306;2023-03-20T15:49:37;19.23;;;4.85;;
67715;SDS011;54508;43.238;25.306;2023-03-20T15:52:13;24.55;;;5.25;;
67715;SDS011;54508;43.238;25.306;2023-03-20T15:54:40;13.85;;;4.28;;
67715;SDS011;54508;43.238;25.306;2023-03-20T15:57:08;15.10;;;4.95;;
67715;SDS011;54508;43.238;25.306;2023-03-20T15:59:40;19.20;;;5.63;;
67715;SDS011;54508;43.238;25.306;2023-03-20T16:02:07;19.27;;;4.75;;
67715;SDS011;54508;43.238;25.306;2023-03-20T16:04:44;16.00;;;4.82;;
67715;SDS011;54508;43.238;25.306;2023-03-20T16:07:22;18.23;;;5.10;;
67715;SDS011;54508;43.238;25.306;2023-03-20T16:09:51;14.88;;;4.97;;
67715;SDS011;54508;43.238;25.306;2023-03-20T16:12:17;25.40;;;5.03;;
67715;SDS011;54508;43.238;25.306;2023-03-20T16:14:43;17.27;;;5.88;;
67715;SDS011;54508;43.238;25.306;2023-03-20T16:17:10;19.30;;;5.10;;
67715;SDS011;54508;43.238;25.306;2023-03-20T16:19:37;28.92;;;6.10;;
67715;SDS011;54508;43.238;25.306;2023-03-20T16:22:16;17.85;;;5.35;;
67715;SDS011;54508;43.238;25.306;2023-03-20T16:24:49;17.08;;;4.90;;
67715;SDS011;54508;43.238;25.306;2023-03-20T16:27:22;20.88;;;5.10;;
67715;SDS011;54508;43.238;25.306;2023-03-20T16:29:53;17.53;;;5.00;;
67715;SDS011;54508;43.238;25.306;2023-03-20T16:35:05;16.90;;;5.00;;
67715;SDS011;54508;43.238;25.306;2023-03-20T16:37:37;10.02;;;4.53;;
67715;SDS011;54508;43.238;25.306;2023-03-20T16:42:41;15.93;;;5.13;;
67715;SDS011;54508;43.238;25.306;2023-03-20T16:45:19;17.60;;;5.13;;
67715;SDS011;54508;43.238;25.306;2023-03-20T16:47:51;27.48;;;4.90;;
67715;SDS011;54508;43.238;25.306;2023-03-20T16:50:39;23.30;;;5.80;;
67715;SDS011;54508;43.238;25.306;2023-03-20T16:53:16;20.85;;;4.97;;
67715;SDS011;54508;43.238;25.306;2023-03-20T16:55:45;15.30;;;5.00;;
67715;SDS011;54508;43.238;25.306;2023-03-20T16:58:33;12.75;;;4.43;;
67715;SDS011;54508;43.238;25.306;2023-03-20T17:01:02;17.80;;;5.47;;
67715;SDS011;54508;43.238;25.306;2023-03-20T17:11:22;25.45;;;5.90;;
67715;SDS011;54508;43.238;25.306;2023-03-20T17:13:52;19.13;;;5.40;;
67715;SDS011;54508;43.238;25.306;2023-03-20T17:16:18;19.83;;;5.13;;
67715;SDS011;54508;43.238;25.306;2023-03-20T17:18:45;14.80;;;5.07;;
67715;SDS011;54508;43.238;25.306;2023-03-20T17:21:23;14.32;;;4.78;;
67715;SDS011;54508;43.238;25.306;2023-03-20T17:23:49;16.47;;;5.77;;
67715;SDS011;54508;43.238;25.306;2023-03-20T17:26:14;13.07;;;5.57;;
67715;SDS011;54508;43.238;25.306;2023-03-20T17:28:40;10.87;;;5.47;;
67715;SDS011;54508;43.238;25.306;2023-03-20T17:31:08;15.32;;;5.55;;
67715;SDS011;54508;43.238;25.306;2023-03-20T17:33:37;18.40;;;5.97;;
67715;SDS011;54508;43.238;25.306;2023-03-20T17:36:02;14.30;;;5.30;;
67715;SDS011;54508;43.238;25.306;2023-03-20T17:38:28;24.03;;;5.57;;
67715;SDS011;54508;43.238;25.306;2023-03-20T17:40:53;16.53;;;5.50;;
67715;SDS011;54508;43.238;25.306;2023-03-20T17:43:19;18.48;;;6.15;;
67715;SDS011;54508;43.238;25.306;2023-03-20T17:45:45;11.70;;;5.95;;
67715;SDS011;54508;43.238;25.306;2023-03-20T17:48:14;13.90;;;6.47;;